createdAt,value
2018-11-06T00:00:32.407Z,43
2018-11-06T00:05:34.877Z,41
2018-11-06T00:10:37.329Z,41
2018-11-06T00:15:39.800Z,46
2018-11-06T00:20:42.255Z,48
2018-11-06T00:25:44.706Z,43
2018-11-06T00:30:47.162Z,46
2018-11-06T00:35:49.617Z,43
2018-11-06T00:40:52.069Z,44
2018-11-06T00:50:57.002Z,34
2018-11-06T00:55:59.445Z,41
2018-11-06T01:01:01.928Z,32
2018-11-06T01:06:04.411Z,35
2018-11-06T01:11:06.824Z,39
2018-11-06T01:16:09.345Z,40
2018-11-06T01:21:11.739Z,41
2018-11-06T01:26:14.219Z,38
2018-11-06T01:31:16.657Z,39
2018-11-06T01:36:19.112Z,39
2018-11-06T01:41:21.589Z,37
2018-11-06T01:46:24.029Z,39
2018-11-06T01:51:26.540Z,39
2018-11-06T01:56:28.985Z,35
2018-11-06T02:01:31.426Z,39
2018-11-06T02:06:33.871Z,37
2018-11-06T02:11:36.314Z,43
2018-11-06T02:16:38.768Z,37
2018-11-06T02:21:41.295Z,38
2018-11-06T02:26:43.685Z,35
2018-11-06T02:31:46.150Z,39
2018-11-06T02:36:48.609Z,37
2018-11-06T02:41:51.057Z,34
2018-11-06T02:46:53.532Z,38
2018-11-06T02:51:55.971Z,38
2018-11-06T02:56:58.436Z,35
2018-11-06T03:02:00.897Z,40
2018-11-06T03:07:03.344Z,35
2018-11-06T03:17:08.261Z,32
2018-11-06T03:22:10.722Z,35
2018-11-06T03:27:13.185Z,30
2018-11-06T03:32:15.634Z,35
2018-11-06T03:37:18.080Z,32
2018-11-06T03:42:20.544Z,32
2018-11-06T03:47:23.010Z,38
2018-11-06T03:52:25.475Z,38
2018-11-06T03:57:28.036Z,40
2018-11-06T04:02:30.370Z,39
2018-11-06T04:07:32.831Z,33
2018-11-06T04:12:35.338Z,36
2018-11-06T04:17:37.750Z,37
2018-11-06T04:22:40.215Z,39
2018-11-06T04:27:42.672Z,35
2018-11-06T04:37:47.592Z,36
2018-11-06T04:42:50.047Z,34
2018-11-06T04:47:52.496Z,33
2018-11-06T04:52:54.951Z,30
2018-11-06T04:57:57.433Z,30
2018-11-06T05:02:59.889Z,37
2018-11-06T05:08:02.322Z,32
2018-11-06T05:13:04.837Z,36
2018-11-06T05:18:07.252Z,34
2018-11-06T05:23:09.717Z,37
2018-11-06T05:28:12.177Z,35
2018-11-06T05:33:14.658Z,36
2018-11-06T05:38:17.076Z,41
2018-11-06T05:43:19.527Z,34
2018-11-06T05:48:22.020Z,30
2018-11-06T05:53:24.473Z,36
2018-11-06T05:58:26.919Z,36
2018-11-06T06:03:29.393Z,33
2018-11-06T06:08:31.819Z,40
2018-11-06T06:13:34.276Z,36
2018-11-06T06:18:36.735Z,31
2018-11-06T06:23:39.198Z,30
2018-11-06T06:28:41.666Z,40
2018-11-06T06:33:44.226Z,34
2018-11-06T06:38:46.652Z,29
2018-11-06T06:43:49.024Z,30
2018-11-06T06:48:51.491Z,26
2018-11-06T06:53:54.040Z,23
2018-11-06T06:58:56.387Z,21
2018-11-06T07:03:58.854Z,22
2018-11-06T07:09:01.312Z,20
2018-11-06T07:14:03.803Z,20
2018-11-06T07:19:06.224Z,20
2018-11-06T07:24:08.695Z,18
2018-11-06T07:29:11.157Z,18
2018-11-06T07:34:13.602Z,19
2018-11-06T07:39:16.059Z,18
2018-11-06T07:44:18.604Z,23
2018-11-06T07:49:20.976Z,20
2018-11-06T07:54:23.446Z,20
2018-11-06T07:59:25.888Z,17
2018-11-06T08:04:28.404Z,18
2018-11-06T08:09:30.865Z,17
2018-11-06T08:14:33.350Z,19
2018-11-06T08:19:35.724Z,22
2018-11-06T08:24:38.173Z,20
2018-11-06T08:29:40.678Z,23
2018-11-06T12:13:43.712Z,26
2018-11-06T12:18:46.155Z,25
2018-11-06T12:23:48.634Z,28
2018-11-06T12:28:51.092Z,30
2018-11-06T12:33:53.536Z,28
2018-11-06T12:38:56.000Z,27
2018-11-06T12:43:58.484Z,26
2018-11-06T12:49:00.916Z,25
2018-11-06T12:54:03.363Z,33
2018-11-06T12:59:05.837Z,28
2018-11-06T13:04:08.317Z,28
